sensor_id;sensor_type;location;lat;lon;timestamp;pressure;altitude;pressure_sealevel;temperature;humidity
34712;BME280;20941;42.408;25.634;2022-10-17T00:00:24;100969.34;;;7.52;78.68
34712;BME280;20941;42.408;25.634;2022-10-17T00:02:49;100970.97;;;7.48;79.38
34712;BME280;20941;42.408;25.634;2022-10-17T00:05:14;100975.13;;;7.46;79.86
34712;BME280;20941;42.408;25.634;2022-10-17T00:07:40;100984.91;;;7.43;80.13
34712;BME280;20941;42.408;25.634;2022-10-17T00:10:06;100972.16;;;7.35;80.91
34712;BME280;20941;42.408;25.634;2022-10-17T00:12:31;100978.09;;;7.39;82.54
34712;BME280;20941;42.408;25.634;2022-10-17T00:14:57;100970.63;;;7.62;81.79
34712;BME280;20941;42.408;25.634;2022-10-17T00:17:22;100965.44;;;7.70;80.83
34712;BME280;20941;42.408;25.634;2022-10-17T00:19:47;100981.81;;;7.79;80.18
34712;BME280;20941;42.408;25.634;2022-10-17T00:22:13;100975.66;;;7.82;79.72
34712;BME280;20941;42.408;25.634;2022-10-17T00:24:38;100984.28;;;7.75;79.24
34712;BME280;20941;42.408;25.634;2022-10-17T00:27:04;100975.19;;;7.68;78.54
34712;BME280;20941;42.408;25.634;2022-10-17T00:29:29;100972.06;;;7.64;77.75
34712;BME280;20941;42.408;25.634;2022-10-17T00:31:55;100965.44;;;7.53;77.68
34712;BME280;20941;42.408;25.634;2022-10-17T00:34:21;100964.28;;;7.32;78.40
34712;BME280;20941;42.408;25.634;2022-10-17T00:36:46;100970.03;;;7.26;78.96
34712;BME280;20941;42.408;25.634;2022-10-17T00:39:11;100961.47;;;7.15;80.38
34712;BME280;20941;42.408;25.634;2022-10-17T00:41:37;100969.78;;;7.10;80.58
34712;BME280;20941;42.408;25.634;2022-10-17T00:44:03;100963.69;;;7.13;80.40
34712;BME280;20941;42.408;25.634;2022-10-17T00:46:30;100970.13;;;7.14;80.08
34712;BME280;20941;42.408;25.634;2022-10-17T00:48:57;100972.69;;;7.15;79.71
34712;BME280;20941;42.408;25.634;2022-10-17T00:51:24;100972.06;;;7.13;80.15
34712;BME280;20941;42.408;25.634;2022-10-17T00:53:53;100974.88;;;7.13;80.85
34712;BME280;20941;42.408;25.634;2022-10-17T00:56:19;100974.03;;;7.13;81.02
34712;BME280;20941;42.408;25.634;2022-10-17T00:58:45;100976.22;;;7.11;81.20
34712;BME280;20941;42.408;25.634;2022-10-17T01:01:11;100972.06;;;7.13;81.74
34712;BME280;20941;42.408;25.634;2022-10-17T01:03:36;100980.19;;;7.15;82.25
34712;BME280;20941;42.408;25.634;2022-10-17T01:06:01;100971.06;;;7.19;82.70
34712;BME280;20941;42.408;25.634;2022-10-17T01:08:27;100967.41;;;7.19;82.35
34712;BME280;20941;42.408;25.634;2022-10-17T01:13:27;100977.50;;;7.20;82.47
34712;BME280;20941;42.408;25.634;2022-10-17T01:18:37;100956.03;;;7.26;83.18
34712;BME280;20941;42.408;25.634;2022-10-17T01:21:08;100966.56;;;7.18;83.95
34712;BME280;20941;42.408;25.634;2022-10-17T01:31:37;100968.25;;;7.53;81.21
34712;BME280;20941;42.408;25.634;2022-10-17T01:39:11;100971.22;;;7.13;81.10
34712;BME280;20941;42.408;25.634;2022-10-17T01:44:06;100972.69;;;6.40;81.38
34712;BME280;20941;42.408;25.634;2022-10-17T01:46:39;100978.19;;;6.35;80.65
34712;BME280;20941;42.408;25.634;2022-10-17T01:49:06;100975.50;;;6.29;79.59
34712;BME280;20941;42.408;25.634;2022-10-17T01:51:43;100988.66;;;6.16;80.04
34712;BME280;20941;42.408;25.634;2022-10-17T01:56:35;100989.88;;;5.97;81.65
34712;BME280;20941;42.408;25.634;2022-10-17T01:59:03;100987.97;;;5.85;81.75
34712;BME280;20941;42.408;25.634;2022-10-17T02:01:31;100987.97;;;5.85;83.49
34712;BME280;20941;42.408;25.634;2022-10-17T02:03:58;100985.63;;;5.94;83.22
34712;BME280;20941;42.408;25.634;2022-10-17T02:06:24;100991.47;;;5.92;83.65
34712;BME280;20941;42.408;25.634;2022-10-17T02:08:50;101005.19;;;5.82;86.04
34712;BME280;20941;42.408;25.634;2022-10-17T02:11:22;100989.16;;;5.89;86.59
34712;BME280;20941;42.408;25.634;2022-10-17T02:13:59;100996.94;;;6.11;88.22
34712;BME280;20941;42.408;25.634;2022-10-17T02:26:52;100962.16;;;7.22;86.32
34712;BME280;20941;42.408;25.634;2022-10-17T02:29:25;100961.63;;;7.60;83.78
34712;BME280;20941;42.408;25.634;2022-10-17T02:31:55;100976.75;;;7.98;81.57
34712;BME280;20941;42.408;25.634;2022-10-17T02:34:24;100970.59;;;8.18;80.00
34712;BME280;20941;42.408;25.634;2022-10-17T02:36:52;100971.84;;;8.32;79.11
34712;BME280;20941;42.408;25.634;2022-10-17T02:39:19;100977.69;;;8.48;78.83
34712;BME280;20941;42.408;25.634;2022-10-17T02:41:45;100983.56;;;8.46;77.77
34712;BME280;20941;42.408;25.634;2022-10-17T02:44:12;100988.13;;;8.30;75.50
34712;BME280;20941;42.408;25.634;2022-10-17T02:46:38;100990.38;;;8.11;74.32
34712;BME280;20941;42.408;25.634;2022-10-17T02:49:39;100998.41;;;7.85;74.78
34712;BME280;20941;42.408;25.634;2022-10-17T02:52:11;101004.72;;;7.76;75.59
34712;BME280;20941;42.408;25.634;2022-10-17T02:54:40;101003.19;;;7.68;76.19
34712;BME280;20941;42.408;25.634;2022-10-17T02:59:31;101008.16;;;8.00;77.36
34712;BME280;20941;42.408;25.634;2022-10-17T03:02:01;101002.31;;;8.24;75.88
34712;BME280;20941;42.408;25.634;2022-10-17T03:04:27;101012.56;;;8.35;75.09
34712;BME280;20941;42.408;25.634;2022-10-17T03:06:52;101003.91;;;8.59;72.83
34712;BME280;20941;42.408;25.634;2022-10-17T03:09:18;101016.34;;;8.68;72.00
34712;BME280;20941;42.408;25.634;2022-10-17T03:11:43;101017.00;;;8.75;71.44
34712;BME280;20941;42.408;25.634;2022-10-17T03:14:09;101018.38;;;8.73;71.13
34712;BME280;20941;42.408;25.634;2022-10-17T03:16:34;101023.88;;;8.62;71.85
34712;BME280;20941;42.408;25.634;2022-10-17T03:19:00;101017.41;;;8.62;71.58
34712;BME280;20941;42.408;25.634;2022-10-17T03:21:25;101013.47;;;8.63;71.66
34712;BME280;20941;42.408;25.634;2022-10-17T03:23:50;101016.88;;;8.65;71.30
34712;BME280;20941;42.408;25.634;2022-10-17T03:26:16;101024.53;;;8.70;71.35
34712;BME280;20941;42.408;25.634;2022-10-17T03:28:41;101024.69;;;8.63;71.05
34712;BME280;20941;42.408;25.634;2022-10-17T03:31:07;101025.25;;;8.60;70.72
34712;BME280;20941;42.408;25.634;2022-10-17T03:33:32;101020.69;;;8.54;71.15
34712;BME280;20941;42.408;25.634;2022-10-17T03:35:58;101026.94;;;8.61;70.62
34712;BME280;20941;42.408;25.634;2022-10-17T03:38:23;101026.06;;;8.60;70.31
34712;BME280;20941;42.408;25.634;2022-10-17T03:40:54;101030.84;;;8.60;70.13
34712;BME280;20941;42.408;25.634;2022-10-17T03:43:20;101029.66;;;8.56;70.04
34712;BME280;20941;42.408;25.634;2022-10-17T03:45:45;101030.84;;;8.60;69.72
34712;BME280;20941;42.408;25.634;2022-10-17T03:48:10;101032.56;;;8.61;69.29
34712;BME280;20941;42.408;25.634;2022-10-17T03:50:36;101033.72;;;8.65;69.49
34712;BME280;20941;42.408;25.634;2022-10-17T03:53:01;101046.09;;;8.69;69.23
34712;BME280;20941;42.408;25.634;2022-10-17T03:55:27;101043.88;;;8.71;69.02
34712;BME280;20941;42.408;25.634;2022-10-17T03:57:52;101043.06;;;8.71;69.40
34712;BME280;20941;42.408;25.634;2022-10-17T04:00:17;101044.94;;;8.65;69.34
34712;BME280;20941;42.408;25.634;2022-10-17T04:02:43;101044.28;;;8.58;69.64
34712;BME280;20941;42.408;25.634;2022-10-17T04:05:09;101063.16;;;8.45;70.76
34712;BME280;20941;42.408;25.634;2022-10-17T04:07:34;101061.91;;;8.36;71.14
34712;BME280;20941;42.408;25.634;2022-10-17T04:10:01;101061.78;;;8.26;70.81
34712;BME280;20941;42.408;25.634;2022-10-17T04:12:27;101066.63;;;8.13;70.77
34712;BME280;20941;42.408;25.634;2022-10-17T04:14:52;101074.81;;;7.64;67.89
34712;BME280;20941;42.408;25.634;2022-10-17T04:17:17;101057.06;;;6.95;70.28
34712;BME280;20941;42.408;25.634;2022-10-17T04:19:43;101070.50;;;6.52;72.50
34712;BME280;20941;42.408;25.634;2022-10-17T04:22:08;101068.09;;;5.97;75.32
34712;BME280;20941;42.408;25.634;2022-10-17T04:24:33;101084.97;;;5.90;77.52
34712;BME280;20941;42.408;25.634;2022-10-17T04:26:59;101081.66;;;5.81;77.60
34712;BME280;20941;42.408;25.634;2022-10-17T04:29:24;101091.09;;;5.56;78.79
34712;BME280;20941;42.408;25.634;2022-10-17T04:31:50;101081.41;;;5.47;79.52
34712;BME280;20941;42.408;25.634;2022-10-17T04:34:16;101086.59;;;5.55;79.49
34712;BME280;20941;42.408;25.634;2022-10-17T04:36:41;101085.66;;;5.50;79.65
34712;BME280;20941;42.408;25.634;2022-10-17T04:39:07;101083.94;;;5.49;81.08
34712;BME280;20941;42.408;25.634;2022-10-17T04:41:32;101089.53;;;5.49;81.96
34712;BME280;20941;42.408;25.634;2022-10-17T04:43:58;101093.78;;;5.51;81.68
34712;BME280;20941;42.408;25.634;2022-10-17T04:46:23;101083.97;;;5.60;82.82
34712;BME280;20941;42.408;25.634;2022-10-17T04:48:49;101082.38;;;5.65;83.20
34712;BME280;20941;42.408;25.634;2022-10-17T04:51:15;101091.63;;;5.77;82.00
34712;BME280;20941;42.408;25.634;2022-10-17T04:53:42;101085.31;;;5.70;81.84
34712;BME280;20941;42.408;25.634;2022-10-17T04:56:08;101086.41;;;5.81;81.52
34712;BME280;20941;42.408;25.634;2022-10-17T04:58:34;101092.59;;;5.94;81.41
34712;BME280;20941;42.408;25.634;2022-10-17T05:01:03;101100.19;;;6.06;81.07
34712;BME280;20941;42.408;25.634;2022-10-17T05:03:28;101107.97;;;6.16;80.88
34712;BME280;20941;42.408;25.634;2022-10-17T05:05:53;101107.19;;;6.20;80.76
34712;BME280;20941;42.408;25.634;2022-10-17T05:08:19;101104.41;;;6.32;81.05
34712;BME280;20941;42.408;25.634;2022-10-17T05:10:46;101101.09;;;6.47;81.23
34712;BME280;20941;42.408;25.634;2022-10-17T05:13:11;101109.00;;;6.62;80.51
34712;BME280;20941;42.408;25.634;2022-10-17T05:15:37;101103.97;;;6.76;79.92
34712;BME280;20941;42.408;25.634;2022-10-17T05:18:03;101110.47;;;6.94;79.33
34712;BME280;20941;42.408;25.634;2022-10-17T05:20:29;101107.38;;;7.07;78.15
34712;BME280;20941;42.408;25.634;2022-10-17T05:25:19;101109.09;;;7.37;77.62
34712;BME280;20941;42.408;25.634;2022-10-17T05:27:45;101118.34;;;7.54;76.74
34712;BME280;20941;42.408;25.634;2022-10-17T05:30:10;101121.16;;;7.71;76.00
34712;BME280;20941;42.408;25.634;2022-10-17T05:32:36;101113.00;;;7.87;75.02
34712;BME280;20941;42.408;25.634;2022-10-17T05:35:01;101121.50;;;8.09;73.93
34712;BME280;20941;42.408;25.634;2022-10-17T05:37:28;101121.31;;;8.33;73.13
34712;BME280;20941;42.408;25.634;2022-10-17T05:39:54;101126.38;;;8.53;72.55
34712;BME280;20941;42.408;25.634;2022-10-17T05:42:19;101133.91;;;8.70;72.21
34712;BME280;20941;42.408;25.634;2022-10-17T05:44:45;101121.19;;;8.84;72.63
34712;BME280;20941;42.408;25.634;2022-10-17T05:47:10;101124.13;;;8.94;71.40
34712;BME280;20941;42.408;25.634;2022-10-17T05:49:35;101130.72;;;9.05;70.76
34712;BME280;20941;42.408;25.634;2022-10-17T05:52:01;101129.31;;;9.30;70.56
34712;BME280;20941;42.408;25.634;2022-10-17T05:54:26;101125.63;;;9.52;68.27
34712;BME280;20941;42.408;25.634;2022-10-17T05:56:55;101134.81;;;9.74;67.35
34712;BME280;20941;42.408;25.634;2022-10-17T05:59:20;101133.41;;;10.04;65.82
34712;BME280;20941;42.408;25.634;2022-10-17T06:01:46;101133.63;;;10.35;64.13
34712;BME280;20941;42.408;25.634;2022-10-17T06:04:11;101128.75;;;10.63;63.22
34712;BME280;20941;42.408;25.634;2022-10-17T06:06:37;101131.13;;;10.92;62.35
34712;BME280;20941;42.408;25.634;2022-10-17T06:11:28;101134.16;;;11.59;58.53
34712;BME280;20941;42.408;25.634;2022-10-17T06:13:54;101126.59;;;11.96;57.00
34712;BME280;20941;42.408;25.634;2022-10-17T06:16:19;101127.44;;;12.22;56.74
34712;BME280;20941;42.408;25.634;2022-10-17T06:18:45;101122.88;;;12.42;55.97
34712;BME280;20941;42.408;25.634;2022-10-17T06:21:11;101129.59;;;12.66;55.76
34712;BME280;20941;42.408;25.634;2022-10-17T06:23:37;101132.94;;;12.89;55.59
34712;BME280;20941;42.408;25.634;2022-10-17T06:26:03;101133.69;;;13.10;55.59
34712;BME280;20941;42.408;25.634;2022-10-17T06:28:28;101132.16;;;13.33;54.86
34712;BME280;20941;42.408;25.634;2022-10-17T06:30:54;101138.28;;;13.56;54.14
34712;BME280;20941;42.408;25.634;2022-10-17T06:33:19;101135.84;;;13.79;53.49
34712;BME280;20941;42.408;25.634;2022-10-17T06:35:55;101138.88;;;13.93;53.25
34712;BME280;20941;42.408;25.634;2022-10-17T06:38:20;101133.63;;;14.10;53.28
34712;BME280;20941;42.408;25.634;2022-10-17T06:40:46;101137.75;;;14.23;53.34
34712;BME280;20941;42.408;25.634;2022-10-17T06:43:11;101141.56;;;14.38;53.64
34712;BME280;20941;42.408;25.634;2022-10-17T06:45:37;101136.84;;;14.57;53.61
34712;BME280;20941;42.408;25.634;2022-10-17T06:48:03;101133.00;;;14.78;53.16
34712;BME280;20941;42.408;25.634;2022-10-17T06:50:29;101132.13;;;14.77;53.24
34712;BME280;20941;42.408;25.634;2022-10-17T06:52:54;101130.38;;;14.81;52.89
34712;BME280;20941;42.408;25.634;2022-10-17T06:55:19;101131.97;;;14.92;53.27
34712;BME280;20941;42.408;25.634;2022-10-17T06:57:45;101134.47;;;14.94;52.62
34712;BME280;20941;42.408;25.634;2022-10-17T07:00:10;101137.25;;;14.99;51.85
34712;BME280;20941;42.408;25.634;2022-10-17T07:02:36;101141.22;;;14.98;51.14
34712;BME280;20941;42.408;25.634;2022-10-17T07:05:01;101135.78;;;15.02;50.59
34712;BME280;20941;42.408;25.634;2022-10-17T07:07:29;101140.88;;;15.05;50.85
34712;BME280;20941;42.408;25.634;2022-10-17T07:09:54;101143.63;;;15.10;49.82
34712;BME280;20941;42.408;25.634;2022-10-17T07:12:19;101143.44;;;15.26;49.57
34712;BME280;20941;42.408;25.634;2022-10-17T07:14:45;101143.84;;;15.38;47.70
34712;BME280;20941;42.408;25.634;2022-10-17T07:17:11;101150.81;;;15.46;46.69
34712;BME280;20941;42.408;25.634;2022-10-17T07:19:37;101155.50;;;15.55;47.03
34712;BME280;20941;42.408;25.634;2022-10-17T07:22:02;101155.50;;;15.75;44.73
34712;BME280;20941;42.408;25.634;2022-10-17T07:24:28;101155.75;;;15.78;44.14
34712;BME280;20941;42.408;25.634;2022-10-17T07:26:53;101152.66;;;15.94;44.09
34712;BME280;20941;42.408;25.634;2022-10-17T07:29:19;101154.91;;;15.97;43.42
34712;BME280;20941;42.408;25.634;2022-10-17T07:31:44;101158.19;;;16.04;43.02
34712;BME280;20941;42.408;25.634;2022-10-17T07:34:12;101159.94;;;16.00;42.75
34712;BME280;20941;42.408;25.634;2022-10-17T07:36:38;101161.88;;;16.04;42.91
34712;BME280;20941;42.408;25.634;2022-10-17T07:39:03;101157.47;;;16.12;43.75
34712;BME280;20941;42.408;25.634;2022-10-17T07:41:28;101150.75;;;16.08;43.72
34712;BME280;20941;42.408;25.634;2022-10-17T07:43:54;101154.13;;;16.10;43.19
34712;BME280;20941;42.408;25.634;2022-10-17T07:46:20;101157.09;;;16.19;43.15
34712;BME280;20941;42.408;25.634;2022-10-17T07:48:45;101147.56;;;16.29;43.22
34712;BME280;20941;42.408;25.634;2022-10-17T07:51:10;101147.34;;;16.25;43.25
34712;BME280;20941;42.408;25.634;2022-10-17T07:53:36;101152.44;;;16.42;43.34
34712;BME280;20941;42.408;25.634;2022-10-17T07:56:03;101156.44;;;16.55;45.90
34712;BME280;20941;42.408;25.634;2022-10-17T07:58:28;101151.41;;;16.66;47.23
34712;BME280;20941;42.408;25.634;2022-10-17T08:00:58;101152.91;;;16.77;47.66
34712;BME280;20941;42.408;25.634;2022-10-17T08:03:24;101145.25;;;16.92;47.39
34712;BME280;20941;42.408;25.634;2022-10-17T08:05:49;101144.00;;;16.98;47.08
34712;BME280;20941;42.408;25.634;2022-10-17T08:08:15;101138.84;;;17.00;47.32
34712;BME280;20941;42.408;25.634;2022-10-17T08:10:40;101147.06;;;17.15;47.46
34712;BME280;20941;42.408;25.634;2022-10-17T08:13:05;101145.13;;;17.25;47.02
34712;BME280;20941;42.408;25.634;2022-10-17T08:15:31;101145.22;;;17.33;48.75
34712;BME280;20941;42.408;25.634;2022-10-17T08:17:56;101136.78;;;17.42;49.89
34712;BME280;20941;42.408;25.634;2022-10-17T08:20:22;101143.13;;;17.39;50.18
34712;BME280;20941;42.408;25.634;2022-10-17T08:22:51;101138.31;;;17.26;50.18
34712;BME280;20941;42.408;25.634;2022-10-17T08:25:17;101145.25;;;17.20;51.15
34712;BME280;20941;42.408;25.634;2022-10-17T08:27:42;101143.16;;;17.25;51.11
34712;BME280;20941;42.408;25.634;2022-10-17T08:30:08;101144.59;;;17.37;50.63
34712;BME280;20941;42.408;25.634;2022-10-17T08:32:33;101134.47;;;17.44;50.15
34712;BME280;20941;42.408;25.634;2022-10-17T08:34:59;101143.00;;;17.44;50.41
34712;BME280;20941;42.408;25.634;2022-10-17T08:37:25;101138.47;;;17.43;50.83
34712;BME280;20941;42.408;25.634;2022-10-17T08:39:50;101134.47;;;17.44;51.69
34712;BME280;20941;42.408;25.634;2022-10-17T08:45:05;101138.00;;;17.64;51.84
34712;BME280;20941;42.408;25.634;2022-10-17T08:47:36;101130.81;;;17.80;51.49
34712;BME280;20941;42.408;25.634;2022-10-17T08:50:04;101134.16;;;17.96;50.51
34712;BME280;20941;42.408;25.634;2022-10-17T08:54:56;101132.66;;;17.99;50.52
34712;BME280;20941;42.408;25.634;2022-10-17T08:57:21;101127.03;;;18.08;50.29
34712;BME280;20941;42.408;25.634;2022-10-17T08:59:50;101127.75;;;18.14;49.65
34712;BME280;20941;42.408;25.634;2022-10-17T09:07:52;101118.69;;;18.11;50.28
34712;BME280;20941;42.408;25.634;2022-10-17T09:10:32;101120.84;;;18.15;50.50
34712;BME280;20941;42.408;25.634;2022-10-17T09:13:08;101121.09;;;18.27;50.04
34712;BME280;20941;42.408;25.634;2022-10-17T09:15:49;101122.59;;;18.24;49.74
34712;BME280;20941;42.408;25.634;2022-10-17T09:18:38;101122.97;;;18.32;49.74
34712;BME280;20941;42.408;25.634;2022-10-17T09:23:47;101112.16;;;18.42;48.89
34712;BME280;20941;42.408;25.634;2022-10-17T09:26:13;101116.47;;;18.31;49.62
34712;BME280;20941;42.408;25.634;2022-10-17T09:28:40;101116.47;;;18.31;49.17
34712;BME280;20941;42.408;25.634;2022-10-17T09:33:41;101114.63;;;18.35;48.60
34712;BME280;20941;42.408;25.634;2022-10-17T09:38:51;101111.72;;;18.49;48.96
34712;BME280;20941;42.408;25.634;2022-10-17T09:41:19;101106.34;;;18.56;48.64
34712;BME280;20941;42.408;25.634;2022-10-17T09:43:45;101104.94;;;18.68;47.96
34712;BME280;20941;42.408;25.634;2022-10-17T09:46:15;101104.88;;;18.59;48.25
34712;BME280;20941;42.408;25.634;2022-10-17T09:48:42;101108.78;;;18.72;48.10
34712;BME280;20941;42.408;25.634;2022-10-17T09:51:11;101095.16;;;18.91;47.57
34712;BME280;20941;42.408;25.634;2022-10-17T09:53:41;101104.06;;;19.07;46.18
34712;BME280;20941;42.408;25.634;2022-10-17T09:56:13;101096.03;;;19.10;46.06
34712;BME280;20941;42.408;25.634;2022-10-17T10:03:40;101096.00;;;18.92;46.18
34712;BME280;20941;42.408;25.634;2022-10-17T10:06:11;101084.06;;;18.90;45.71
34712;BME280;20941;42.408;25.634;2022-10-17T10:08:47;101085.09;;;19.03;45.23
34712;BME280;20941;42.408;25.634;2022-10-17T10:11:13;101084.63;;;19.10;45.22
34712;BME280;20941;42.408;25.634;2022-10-17T10:13:39;101087.31;;;19.15;45.57
34712;BME280;20941;42.408;25.634;2022-10-17T10:16:21;101081.63;;;19.15;45.53
34712;BME280;20941;42.408;25.634;2022-10-17T10:18:48;101082.97;;;19.26;45.44
34712;BME280;20941;42.408;25.634;2022-10-17T10:21:15;101079.47;;;19.38;44.49
34712;BME280;20941;42.408;25.634;2022-10-17T10:24:02;101086.34;;;19.46;44.38
34712;BME280;20941;42.408;25.634;2022-10-17T10:26:27;101086.00;;;19.38;45.30
34712;BME280;20941;42.408;25.634;2022-10-17T10:28:58;101087.69;;;19.39;44.36
34712;BME280;20941;42.408;25.634;2022-10-17T10:31:25;101080.16;;;19.44;44.13
34712;BME280;20941;42.408;25.634;2022-10-17T10:33:51;101077.63;;;19.51;44.42
34712;BME280;20941;42.408;25.634;2022-10-17T10:36:17;101081.84;;;19.53;43.78
34712;BME280;20941;42.408;25.634;2022-10-17T10:38:50;101083.34;;;19.51;43.58
34712;BME280;20941;42.408;25.634;2022-10-17T10:41:16;101076.28;;;19.48;42.95
34712;BME280;20941;42.408;25.634;2022-10-17T10:43:45;101065.22;;;19.29;43.73
34712;BME280;20941;42.408;25.634;2022-10-17T10:46:18;101064.53;;;19.32;44.64
34712;BME280;20941;42.408;25.634;2022-10-17T10:49:02;101064.22;;;19.43;44.15
34712;BME280;20941;42.408;25.634;2022-10-17T10:56:46;101050.63;;;19.75;43.14
34712;BME280;20941;42.408;25.634;2022-10-17T10:59:17;101053.13;;;19.85;43.02
34712;BME280;20941;42.408;25.634;2022-10-17T11:01:50;101044.94;;;19.83;43.57
34712;BME280;20941;42.408;25.634;2022-10-17T11:04:30;101055.50;;;19.83;42.98
34712;BME280;20941;42.408;25.634;2022-10-17T11:07:07;101051.97;;;19.68;42.57
34712;BME280;20941;42.408;25.634;2022-10-17T11:09:52;101045.09;;;19.87;42.71
34712;BME280;20941;42.408;25.634;2022-10-17T11:12:26;101043.03;;;19.79;43.01
34712;BME280;20941;42.408;25.634;2022-10-17T11:14:57;101039.84;;;19.80;43.19
34712;BME280;20941;42.408;25.634;2022-10-17T11:17:27;101044.22;;;19.78;43.61
34712;BME280;20941;42.408;25.634;2022-10-17T11:27:30;101028.63;;;19.66;43.10
34712;BME280;20941;42.408;25.634;2022-10-17T11:29:55;101030.81;;;19.87;42.89
34712;BME280;20941;42.408;25.634;2022-10-17T11:32:24;101026.75;;;20.06;43.25
34712;BME280;20941;42.408;25.634;2022-10-17T11:35:34;101021.34;;;20.13;42.66
34712;BME280;20941;42.408;25.634;2022-10-17T11:37:41;101018.16;;;20.06;43.08
34712;BME280;20941;42.408;25.634;2022-10-17T11:40:19;101020.53;;;20.03;43.98
34712;BME280;20941;42.408;25.634;2022-10-17T11:42:50;101019.97;;;20.19;43.68
34712;BME280;20941;42.408;25.634;2022-10-17T11:45:17;101014.59;;;20.26;43.44
34712;BME280;20941;42.408;25.634;2022-10-17T11:47:49;101009.88;;;20.22;43.11
34712;BME280;20941;42.408;25.634;2022-10-17T11:50:37;101009.72;;;20.18;43.51
34712;BME280;20941;42.408;25.634;2022-10-17T11:55:29;101013.25;;;20.24;43.89
34712;BME280;20941;42.408;25.634;2022-10-17T12:00:51;101007.00;;;20.30;43.54
34712;BME280;20941;42.408;25.634;2022-10-17T12:06:13;101010.13;;;20.46;43.40
34712;BME280;20941;42.408;25.634;2022-10-17T12:09:24;100998.84;;;20.50;43.22
34712;BME280;20941;42.408;25.634;2022-10-17T12:11:33;101007.03;;;20.60;43.45
34712;BME280;20941;42.408;25.634;2022-10-17T12:14:33;101008.44;;;20.54;43.54
34712;BME280;20941;42.408;25.634;2022-10-17T12:16:49;101007.88;;;20.61;43.69
34712;BME280;20941;42.408;25.634;2022-10-17T12:19:24;101011.28;;;20.54;43.42
34712;BME280;20941;42.408;25.634;2022-10-17T12:21:56;101007.09;;;20.43;43.44
34712;BME280;20941;42.408;25.634;2022-10-17T12:24:43;101005.25;;;20.47;42.92
34712;BME280;20941;42.408;25.634;2022-10-17T12:29:57;101009.97;;;20.43;43.95
34712;BME280;20941;42.408;25.634;2022-10-17T12:32:23;101010.28;;;20.50;43.18
34712;BME280;20941;42.408;25.634;2022-10-17T12:34:54;101000.31;;;20.56;42.75
34712;BME280;20941;42.408;25.634;2022-10-17T12:40:37;100999.78;;;20.72;41.97
34712;BME280;20941;42.408;25.634;2022-10-17T12:42:49;101005.81;;;20.70;42.37
34712;BME280;20941;42.408;25.634;2022-10-17T12:47:59;101003.47;;;20.63;43.10
34712;BME280;20941;42.408;25.634;2022-10-17T12:50:59;101002.88;;;20.49;44.14
34712;BME280;20941;42.408;25.634;2022-10-17T12:53:19;101000.75;;;20.37;43.88
34712;BME280;20941;42.408;25.634;2022-10-17T12:55:48;101005.25;;;20.47;43.73
34712;BME280;20941;42.408;25.634;2022-10-17T12:58:15;101002.72;;;20.54;43.58
34712;BME280;20941;42.408;25.634;2022-10-17T13:03:27;101010.88;;;20.64;42.97
34712;BME280;20941;42.408;25.634;2022-10-17T13:05:55;101001.03;;;20.53;43.42
34712;BME280;20941;42.408;25.634;2022-10-17T13:08:26;100999.44;;;20.64;43.48
34712;BME280;20941;42.408;25.634;2022-10-17T13:10:52;101009.19;;;20.63;43.88
34712;BME280;20941;42.408;25.634;2022-10-17T13:13:20;101003.13;;;20.74;43.55
34712;BME280;20941;42.408;25.634;2022-10-17T13:15:49;101007.78;;;20.78;43.11
34712;BME280;20941;42.408;25.634;2022-10-17T13:18:20;101006.28;;;20.81;43.17
34712;BME280;20941;42.408;25.634;2022-10-17T13:20:56;101006.13;;;20.68;43.49
34712;BME280;20941;42.408;25.634;2022-10-17T13:23:23;101002.72;;;20.84;43.16
34712;BME280;20941;42.408;25.634;2022-10-17T13:26:00;100994.94;;;20.93;42.75
34712;BME280;20941;42.408;25.634;2022-10-17T13:28:26;100999.41;;;21.03;42.70
34712;BME280;20941;42.408;25.634;2022-10-17T13:30:53;100991.88;;;20.98;42.72
34712;BME280;20941;42.408;25.634;2022-10-17T13:36:13;100996.06;;;21.01;42.79
34712;BME280;20941;42.408;25.634;2022-10-17T13:38:43;100995.88;;;20.76;43.07
34712;BME280;20941;42.408;25.634;2022-10-17T13:41:12;100997.88;;;20.84;42.51
34712;BME280;20941;42.408;25.634;2022-10-17T13:43:38;100992.69;;;20.78;43.50
34712;BME280;20941;42.408;25.634;2022-10-17T13:46:04;100988.63;;;20.79;44.03
34712;BME280;20941;42.408;25.634;2022-10-17T13:48:32;101002.22;;;20.82;43.97
34712;BME280;20941;42.408;25.634;2022-10-17T13:51:01;100993.47;;;20.87;43.17
34712;BME280;20941;42.408;25.634;2022-10-17T13:53:31;100995.28;;;20.92;42.87
34712;BME280;20941;42.408;25.634;2022-10-17T13:58:22;100995.50;;;21.08;42.43
34712;BME280;20941;42.408;25.634;2022-10-17T14:00:48;100993.06;;;20.97;42.71
34712;BME280;20941;42.408;25.634;2022-10-17T14:03:16;100997.16;;;21.09;42.64
34712;BME280;20941;42.408;25.634;2022-10-17T14:08:26;100985.06;;;21.12;42.80
34712;BME280;20941;42.408;25.634;2022-10-17T14:10:52;100999.28;;;21.21;42.86
34712;BME280;20941;42.408;25.634;2022-10-17T14:13:35;100987.34;;;20.97;43.16
34712;BME280;20941;42.408;25.634;2022-10-17T14:16:01;100984.63;;;20.71;43.86
34712;BME280;20941;42.408;25.634;2022-10-17T14:18:28;100987.72;;;20.57;43.66
34712;BME280;20941;42.408;25.634;2022-10-17T14:20:54;100998.16;;;20.53;44.40
34712;BME280;20941;42.408;25.634;2022-10-17T14:23:33;100997.16;;;20.49;44.68
34712;BME280;20941;42.408;25.634;2022-10-17T14:26:05;100995.94;;;20.59;44.21
34712;BME280;20941;42.408;25.634;2022-10-17T14:28:31;101000.16;;;20.61;44.29
34712;BME280;20941;42.408;25.634;2022-10-17T14:31:08;101001.63;;;20.67;44.28
34712;BME280;20941;42.408;25.634;2022-10-17T14:35:59;101003.19;;;20.56;44.31